Flight Track Log - Related Links

Times and Time Zones

All times are in EDT time to prevent confusion due to time zone crossing. See the SKW5631 flight status page for this flight to view local times or setup timezone preferences in your user account.

Time Position Orientation Groundspeed Altitude Reporting Facility
EDT Latitude Longitude Course Direction KTS MPH feet Rate Location/Type
Thu 09:44:35 PM 39.9167 -104.6833 346° North 166 191 6,700  Level Denver TRACON
Thu 09:45:35 PM 39.9667 -104.6833 360° North 222 255 8,500 1,758 Climbing Denver TRACON
Thu 09:46:14 PM 40.0139 -104.6678 14° North 244 281 9,600 2,079 Climbing Denver Center
Thu 09:47:16 PM 40.0956 -104.6814 353° North 303 349 12,000 2,516 Climbing Denver Center
Thu 09:48:18 PM 40.1831 -104.7028 349° North 300 345 14,800 2,468 Climbing Denver Center
Thu 09:49:20 PM 40.2697 -104.7242 349° North 317 365 17,100 2,274 Climbing Denver Center
Thu 09:50:00 PM 40.4387 -104.8573 346° North  Level FlightAware Approximate
Thu 09:50:22 PM 40.3631 -104.7478 349° North 314 361 19,500  Level Denver Center
Thu 09:51:24 PM 40.4547 -104.7697 350° North 333 383 21,300 1,694 Climbing Denver Center
Thu 09:52:26 PM 40.5464 -104.7936 349° North 339 390 23,000 1,548 Climbing Denver Center
Thu 09:53:28 PM 40.6417 -104.8175 349° North 343 395 24,500 1,355 Climbing Denver Center
Thu 09:54:30 PM 40.7422 -104.8411 350° North 365 420 25,800 1,258 Climbing Denver Center
Thu 09:55:32 PM 40.8383 -104.8764 344° North 358 412 27,100 1,306 Climbing Denver Center
Thu 09:56:34 PM 40.9511 -104.9319 340° North 367 422 28,500 1,306 Climbing Denver Center
Thu 09:57:36 PM 41.0483 -104.9797 340° North 366 421 29,800 1,113 Climbing Denver Center
Thu 09:58:38 PM 41.1386 -105.0236 340° North 362 417 30,800 726 Climbing Denver Center
Thu 09:59:40 PM 41.2464 -105.0778 339° North 370 426 31,300 484 Climbing Denver Center
Thu 10:00:42 PM 41.3417 -105.1256 339° North 381 438 31,800 339 Climbing Denver Center
Thu 10:01:44 PM 41.4392 -105.1736 340° North 387 445 32,000 96 Climbing Denver Center
Thu 10:02:47 PM 41.5578 -105.2369 338° Northwest 406 467 32,000  Level Denver Center
Thu 10:03:49 PM 41.6467 -105.3239 324° Northwest 410 472 32,000  Level Denver Center
Thu 10:04:51 PM 41.7481 -105.4350 321° Northwest 419 482 32,000  Level Denver Center
Thu 10:05:53 PM 41.8356 -105.5289 321° Northwest 419 482 32,000  Level Denver Center
Thu 10:06:55 PM 41.9364 -105.6386 321° Northwest 415 478 32,000  Level Denver Center
Thu 10:07:57 PM 42.0208 -105.7294 321° Northwest 409 471 32,000  Level Denver Center
Thu 10:08:59 PM 42.1183 -105.8375 321° Northwest 405 466 32,000  Level Denver Center
Thu 10:10:01 PM 42.2011 -105.9300 320° Northwest 403 464 32,000  Level Denver Center
Thu 10:11:03 PM 42.2978 -106.0367 321° Northwest 402 463 32,000  Level Denver Center
Thu 10:12:05 PM 42.3778 -106.1261 320° Northwest 393 452 32,000  Level Denver Center
Thu 10:13:07 PM 42.4597 -106.2181 320° Northwest 397 457 32,000  Level Denver Center
Thu 10:14:09 PM 42.5550 -106.3244 321° Northwest 396 456 32,000  Level Denver Center
Thu 10:15:11 PM 42.6367 -106.4161 320° Northwest 398 458 32,000  Level Denver Center
Thu 10:16:13 PM 42.7303 -106.5244 320° Northwest 397 457 32,000  Level Denver Center
Thu 10:17:15 PM 42.8119 -106.6156 321° Northwest 394 453 32,000  Level Denver Center
Thu 10:18:17 PM 42.9072 -106.7242 320° Northwest 399 459 32,000  Level Denver Center
Thu 10:19:19 PM 42.9894 -106.8186 320° Northwest 402 463 32,000  Level Denver Center
Thu 10:20:21 PM 43.0861 -106.9294 320° Northwest 407 468 32,000  Level Denver Center
Thu 10:20:52 PM 43.1258 -106.9750 320° Northwest 407 468 32,000  Level Salt Lake Center
Thu 10:21:54 PM 43.2094 -107.0717 320° Northwest 407 468 32,000  Level Salt Lake Center
Thu 10:22:25 PM 43.2647 -107.1339 321° Northwest 405 466 32,000  Level Denver Center
Thu 10:23:26 PM 43.3467 -107.2294 320° Northwest 403 464 32,000  Level Denver Center
Thu 10:23:57 PM 43.3875 -107.2775 319° Northwest 402 463 32,000  Level Salt Lake Center
Thu 10:24:59 PM 43.4844 -107.3908 320° Northwest 408 470 32,000  Level Salt Lake Center
Thu 10:26:01 PM 43.5664 -107.4883 319° Northwest 408 470 32,000  Level Salt Lake Center
Thu 10:27:03 PM 43.6631 -107.6006 320° Northwest 405 466 32,000  Level Salt Lake Center
Thu 10:28:04 PM 43.7456 -107.6997 319° Northwest 409 471 32,000  Level Salt Lake Center
Thu 10:29:06 PM 43.8283 -107.7972 320° Northwest 407 468 32,000 -1,258 Level Salt Lake Center
Thu 10:30:08 PM 43.9261 -107.9133 319° Northwest 413 475 29,400 -2,878 Descending Salt Lake Center
Thu 10:31:09 PM 44.0094 -108.0153 319° Northwest 416 479 26,100 -3,561 Descending Salt Lake Center
Thu 10:32:11 PM 44.0933 -108.1461 312° West 407 468 22,100 -3,484 Descending Salt Lake Center
Thu 10:33:13 PM 44.1625 -108.2531 312° West 398 458 18,900 -2,952 Descending Salt Lake Center
Thu 10:34:15 PM 44.2281 -108.3547 312° West 384 442 16,000 -2,390 Descending Salt Lake Center
Thu 10:35:16 PM 44.2989 -108.4631 312° West 360 414 14,000 -976 Descending Salt Lake Center
Thu 10:36:18 PM 44.3494 -108.5417 312° West 319 367 14,000 -581 Level Salt Lake Center
Thu 10:37:20 PM 44.4044 -108.6267 312° West 283 326 12,800 -1,463 Descending Salt Lake Center
Thu 10:38:21 PM 44.4506 -108.6975 312° West 268 308 11,000 -1,805 Descending Salt Lake Center
Thu 10:39:23 PM 44.5075 -108.7539 325° Northwest 262 302 9,100 -1,306 Descending Salt Lake Center
Thu 10:40:25 PM 44.5747 -108.7994 334° Northwest 249 287 8,300 -732 Descending Salt Lake Center
Thu 10:41:26 PM 44.6144 -108.8356 327° Northwest 210 242 7,600 -488 Descending Salt Lake Center
Thu 10:42:28 PM 44.6019 -108.8942 253° West 181 208 7,300 -629 Descending Salt Lake Center
Thu 10:43:30 PM 44.5689 -108.9344 221° Southwest 174 200 6,300 -585 Descending Salt Lake Center
Thu 10:44:31 PM 44.5411 -108.9797 229° Southwest 165 190 6,100 -197 Descending Salt Lake Center
Thu 10:46:00 PM 44.5167 -109.0167 200° South  Level FlightAware Approximate
Thu 10:53:00 PM 44.5202 -109.0238 200° South  Level Estimated

Login

Don't have an account? Register now (free) for customized features, flight alerts, and more!